This is the latest recevied weather packets stored in our database for station/object OZ7MKS. If no packets are shown the sender has not sent any weather packets the latest 10 day(s).
| Time | Temp. | Humidity | Pressure | Rain* | Wind** | Luminosity | Snow |
|---|---|---|---|---|---|---|---|
| 1778261703 | 13.89° C | 77% | 1022 hPa | 0 mm | - | - | - |
| 1778258104 | 15° C | 70% | 1021.9 hPa | 0 mm | - | - | - |
| 1778256904 | 16.11° C | 66% | 1021.8 hPa | 0 mm | - | - | - |
| 1778253604 | 14.44° C | 71% | 1022.1 hPa | 0 mm | - | - | - |
| 1778253004 | 14.44° C | 70% | 1022.1 hPa | 0 mm | - | - | - |
| 1778251504 | 14.44° C | 68% | 1022.1 hPa | 0 mm | - | - | - |
| 1778250304 | 15° C | 72% | 1022.2 hPa | 0 mm | - | - | - |
| 1778249104 | 15° C | 71% | 1022.3 hPa | 0 mm | - | - | - |
| 1778246704 | 15.56° C | 68% | 1022.5 hPa | 0 mm | - | - | - |
| 1778244904 | 15° C | 68% | 1022.6 hPa | 0 mm | - | - | - |
| 1778243704 | 15° C | 69% | 1022.7 hPa | 0 mm | - | - | - |
| 1778242203 | 15° C | 69% | 1022.7 hPa | 0 mm | - | - | - |
| 1778240704 | 15.56° C | 67% | 1022.7 hPa | 0 mm | - | - | - |
| 1778240403 | 15.56° C | 66% | 1022.7 hPa | 0 mm | - | - | - |
| 1778237704 | 16.67° C | 61% | 1022.6 hPa | 0 mm | - | - | - |
| 1778229604 | 16.67° C | 65% | 1022.3 hPa | 0 mm | - | - | - |
| 1778228404 | 16.11° C | 67% | 1022.4 hPa | 0 mm | - | - | - |
| 1778227504 | 16.11° C | 67% | 1022.4 hPa | 0 mm | - | - | - |
| 1778227204 | 15.56° C | 71% | 1022.4 hPa | 0 mm | - | - | - |
| 1778224204 | 14.44° C | 76% | 1022.3 hPa | 0 mm | - | - | - |
| 1778223904 | 13.89° C | 76% | 1022.2 hPa | 0 mm | - | - | - |
| 1778223304 | 13.33° C | 80% | 1022.1 hPa | 0 mm | - | - | - |
| 1778222104 | 11.67° C | 84% | 1021.9 hPa | 0 mm | - | - | - |
| 1778217004 | 6.67° C | 94% | 1021.7 hPa | 0 mm | - | - | - |
| 1778215503 | 5.56° C | 93% | 1021.4 hPa | 0 mm | - | - | - |
* Rain latest hour (hover to see other rain measurements)
** Current wind speed in m/s (hover to see current wind gust speed)